CheckWX is a tool to help pilots better visualize weather data.  It is not intended as a substitute for an official pre-flight weather briefing.

14:44:07 UTC

FYGF METAR
Grootfontein Airport
Grootfontein, Namibia
Current

3 hours ago

FYGF 201200Z 09003KT CAVOK 29/M03 Q1022
Observed
May-20 @ 12:00 UTC
Wind
  • 090° at 3 KTS
Visibility
10,000+ meters
Flight Rules
VFR
Cloud Levels
  • Clear skies
Temperature
29°C / 84°F
Dewpoint
-3°C / 27°F
Humidity
12%
Altimeter
30.18" Hg
Pressure
1021.92 hPa
Previous

4 hours ago

FYGF 201100Z 30003KT CAVOK 29/M03 Q1024
Observed
May-20 @ 11:00 UTC
Wind
  • 300° at 3 KTS
Visibility
10,000+ meters
Flight Rules
VFR
Cloud Levels
  • Clear skies
Temperature
29°C / 84°F
Dewpoint
-3°C / 27°F
Humidity
12%
Altimeter
30.24" Hg
Pressure
1023.92 hPa
Previous

5 hours ago

FYGF 201000Z 04003KT CAVOK 27/M02 Q1025
Observed
May-20 @ 10:00 UTC
Wind
  • 040° at 3 KTS
Visibility
10,000+ meters
Flight Rules
VFR
Cloud Levels
  • Clear skies
Temperature
27°C / 81°F
Dewpoint
-2°C / 28°F
Humidity
15%
Altimeter
30.27" Hg
Pressure
1024.92 hPa